DLH2505 UACC-UTDD
Flight info
| Callsign | DLH2505 |
|---|---|
| Flight time | 2h 5m |
| Altitude | 38000 |
| Route | KOKON1B KOKON M75 AMIGU P178 TIMKA/K0861F370 M168 GENDI DCT DODUR DCT PF/K0863F380 A103 SX PUGU1E |
| Aircraft | A346/H-SDE2E3FGHIJ3J4J5M1RWXY/LB1D1 |
Departure
| Time | 2026-04-26 12:39 |
|---|---|
| Airport | Nursultan Nazarbayev International Airport (UACC) |
Arrival
| Time | 2026-04-26 14:44 |
|---|---|
| Airport | Dushanbe International Airport (UTDD) |
| Time | Latitude | Longitude | Altitude | Speed | Heading |
|---|---|---|---|---|---|
| 2026-04-26 12:14 | 51.02472 | 71.45874 | 1172 ft | 0 kts | 44° |
| 2026-04-26 12:27 | 51.02485 | 71.45895 | 1172 ft | 7 kts | 46° |
| 2026-04-26 12:28 | 51.02499 | 71.45985 | 1171 ft | 12 kts | 106° |
| 2026-04-26 12:28 | 51.02435 | 71.46102 | 1169 ft | 15 kts | 133° |
| 2026-04-26 12:28 | 51.02363 | 71.46236 | 1171 ft | 16 kts | 110° |
| 2026-04-26 12:28 | 51.02398 | 71.46376 | 1169 ft | 9 kts | 46° |
| 2026-04-26 12:29 | 51.02447 | 71.46456 | 1168 ft | 11 kts | 45° |
| 2026-04-26 12:29 | 51.02510 | 71.46554 | 1169 ft | 14 kts | 44° |
| 2026-04-26 12:29 | 51.02670 | 71.46804 | 1169 ft | 18 kts | 44° |
| 2026-04-26 12:30 | 51.02768 | 71.46958 | 1170 ft | 21 kts | 44° |
| 2026-04-26 12:30 | 51.02875 | 71.47126 | 1171 ft | 23 kts | 44° |
| 2026-04-26 12:30 | 51.02990 | 71.47304 | 1172 ft | 24 kts | 44° |
| 2026-04-26 12:31 | 51.03220 | 71.47660 | 1168 ft | 24 kts | 44° |
| 2026-04-26 12:31 | 51.03284 | 71.47761 | 1170 ft | 0 kts | 44° |
| 2026-04-26 12:31 | 51.03289 | 71.47768 | 1172 ft | 2 kts | 44° |
| 2026-04-26 12:31 | 51.03306 | 71.47796 | 1172 ft | 5 kts | 44° |
| 2026-04-26 12:32 | 51.03338 | 71.47845 | 1170 ft | 8 kts | 44° |
| 2026-04-26 12:32 | 51.03344 | 71.47855 | 1172 ft | 0 kts | 44° |
| 2026-04-26 12:33 | 51.03345 | 71.47856 | 1172 ft | 1 kts | 44° |
| 2026-04-26 12:33 | 51.03354 | 71.47870 | 1169 ft | 3 kts | 44° |
| 2026-04-26 12:34 | 51.03378 | 71.47907 | 1172 ft | 6 kts | 45° |
| 2026-04-26 12:34 | 51.03410 | 71.47965 | 1172 ft | 5 kts | 54° |
| 2026-04-26 12:34 | 51.03420 | 71.47997 | 1169 ft | 0 kts | 71° |
| 2026-04-26 12:35 | 51.03423 | 71.48010 | 1172 ft | 4 kts | 72° |
| 2026-04-26 12:35 | 51.03430 | 71.48093 | 1172 ft | 5 kts | 88° |
| 2026-04-26 12:35 | 51.03431 | 71.48106 | 1172 ft | 0 kts | 88° |
| 2026-04-26 12:36 | 51.03431 | 71.48107 | 1172 ft | 1 kts | 88° |
| 2026-04-26 12:36 | 51.03432 | 71.48163 | 1169 ft | 8 kts | 88° |
| 2026-04-26 12:37 | 51.03423 | 71.48258 | 1169 ft | 10 kts | 115° |
| 2026-04-26 12:37 | 51.03390 | 71.48329 | 1171 ft | 4 kts | 141° |
| 2026-04-26 12:37 | 51.03360 | 71.48337 | 1169 ft | 5 kts | 203° |
| 2026-04-26 12:37 | 51.03343 | 71.48313 | 1173 ft | 0 kts | 225° |
| 2026-04-26 12:38 | 51.03176 | 71.48054 | 1173 ft | 75 kts | 224° |
| 2026-04-26 12:38 | 51.02616 | 71.47178 | 1172 ft | 149 kts | 225° |
| 2026-04-26 12:39 | 51.01738 | 71.45819 | 1340 ft | 193 kts | 227° |
| 2026-04-26 12:39 | 51.00774 | 71.44314 | 2265 ft | 193 kts | 230° |
| 2026-04-26 12:39 | 50.99825 | 71.42828 | 3304 ft | 191 kts | 229° |
| 2026-04-26 12:39 | 50.98852 | 71.41323 | 3905 ft | 202 kts | 231° |
| 2026-04-26 12:40 | 50.97804 | 71.39688 | 4348 ft | 221 kts | 231° |
| 2026-04-26 12:40 | 50.96664 | 71.37900 | 4856 ft | 239 kts | 231° |
| 2026-04-26 12:40 | 50.95438 | 71.35987 | 5433 ft | 254 kts | 230° |
| 2026-04-26 12:40 | 50.94164 | 71.34014 | 6270 ft | 257 kts | 231° |
| 2026-04-26 12:41 | 50.92882 | 71.32033 | 7179 ft | 258 kts | 230° |
| 2026-04-26 12:41 | 50.91597 | 71.30035 | 8054 ft | 260 kts | 230° |
| 2026-04-26 12:41 | 50.90300 | 71.28020 | 8881 ft | 262 kts | 229° |
| 2026-04-26 12:41 | 50.88989 | 71.25986 | 9696 ft | 265 kts | 229° |
| 2026-04-26 12:42 | 50.87668 | 71.23941 | 10526 ft | 267 kts | 228° |
| 2026-04-26 12:42 | 50.86338 | 71.21875 | 11042 ft | 281 kts | 227° |
| 2026-04-26 12:42 | 50.84861 | 71.19591 | 11437 ft | 299 kts | 227° |
| 2026-04-26 12:42 | 50.83327 | 71.17228 | 11801 ft | 316 kts | 226° |
| 2026-04-26 12:43 | 50.81706 | 71.14732 | 12165 ft | 333 kts | 226° |
| 2026-04-26 12:43 | 50.80073 | 71.12223 | 12747 ft | 340 kts | 226° |
| 2026-04-26 12:43 | 50.78309 | 71.09520 | 13613 ft | 341 kts | 226° |
| 2026-04-26 12:43 | 50.76600 | 71.06902 | 14441 ft | 342 kts | 226° |
| 2026-04-26 12:44 | 50.75463 | 71.05163 | 14958 ft | 344 kts | 226° |
| 2026-04-26 12:44 | 50.73740 | 71.02525 | 15712 ft | 346 kts | 226° |
| 2026-04-26 12:44 | 50.71993 | 70.99900 | 16435 ft | 349 kts | 224° |
| 2026-04-26 12:44 | 50.70129 | 70.97408 | 17122 ft | 353 kts | 220° |
| 2026-04-26 12:45 | 50.67483 | 70.94372 | 18039 ft | 357 kts | 216° |
| 2026-04-26 12:45 | 50.65384 | 70.92241 | 18738 ft | 359 kts | 216° |
| 2026-04-26 12:45 | 50.63276 | 70.90103 | 19396 ft | 362 kts | 216° |
| 2026-04-26 12:45 | 50.61840 | 70.88649 | 19811 ft | 364 kts | 216° |
| 2026-04-26 12:46 | 50.59699 | 70.86484 | 20419 ft | 367 kts | 215° |
| 2026-04-26 12:46 | 50.57539 | 70.84308 | 21028 ft | 370 kts | 215° |
| 2026-04-26 12:46 | 50.55360 | 70.82117 | 21623 ft | 373 kts | 215° |
| 2026-04-26 12:46 | 50.53161 | 70.79909 | 22156 ft | 377 kts | 215° |
| 2026-04-26 12:47 | 50.50943 | 70.77685 | 22709 ft | 380 kts | 215° |
| 2026-04-26 12:47 | 50.48709 | 70.75448 | 23250 ft | 382 kts | 215° |
| 2026-04-26 12:47 | 50.46457 | 70.73196 | 23790 ft | 385 kts | 215° |
| 2026-04-26 12:47 | 50.44189 | 70.70930 | 24309 ft | 388 kts | 215° |
| 2026-04-26 12:48 | 50.41902 | 70.68649 | 24798 ft | 391 kts | 215° |
| 2026-04-26 12:48 | 50.39594 | 70.66348 | 25265 ft | 394 kts | 215° |
| 2026-04-26 12:48 | 50.37290 | 70.64057 | 25744 ft | 397 kts | 215° |
| 2026-04-26 12:48 | 50.34952 | 70.61734 | 26213 ft | 400 kts | 215° |
| 2026-04-26 12:49 | 50.32596 | 70.59394 | 26667 ft | 402 kts | 214° |
| 2026-04-26 12:49 | 50.30224 | 70.57042 | 27130 ft | 405 kts | 214° |
| 2026-04-26 12:49 | 50.27823 | 70.54664 | 27562 ft | 407 kts | 214° |
| 2026-04-26 12:49 | 50.25418 | 70.52284 | 27979 ft | 410 kts | 214° |
| 2026-04-26 12:50 | 50.22997 | 70.49892 | 28398 ft | 413 kts | 214° |
| 2026-04-26 12:50 | 50.20565 | 70.47494 | 28867 ft | 413 kts | 214° |
| 2026-04-26 12:50 | 50.18143 | 70.45098 | 29455 ft | 411 kts | 215° |
| 2026-04-26 12:50 | 50.15798 | 70.42591 | 30078 ft | 407 kts | 217° |
| 2026-04-26 12:51 | 50.13540 | 70.39956 | 30666 ft | 404 kts | 219° |
| 2026-04-26 12:51 | 50.11291 | 70.37330 | 31133 ft | 404 kts | 218° |
| 2026-04-26 12:51 | 50.09006 | 70.34679 | 31559 ft | 405 kts | 218° |
| 2026-04-26 12:51 | 50.06746 | 70.32057 | 31975 ft | 406 kts | 218° |
| 2026-04-26 12:52 | 50.04483 | 70.29424 | 32401 ft | 406 kts | 219° |
| 2026-04-26 12:52 | 50.02220 | 70.26793 | 32810 ft | 406 kts | 218° |
| 2026-04-26 12:52 | 49.99957 | 70.24168 | 33217 ft | 406 kts | 219° |
| 2026-04-26 12:52 | 49.97689 | 70.21541 | 33613 ft | 406 kts | 219° |
| 2026-04-26 12:53 | 49.95420 | 70.18916 | 33997 ft | 407 kts | 219° |
| 2026-04-26 12:53 | 49.93150 | 70.16291 | 34374 ft | 407 kts | 219° |
| 2026-04-26 12:53 | 49.90882 | 70.13669 | 34731 ft | 407 kts | 219° |
| 2026-04-26 12:53 | 49.88606 | 70.11041 | 35063 ft | 407 kts | 218° |
| 2026-04-26 12:54 | 49.86330 | 70.08418 | 35404 ft | 408 kts | 218° |
| 2026-04-26 12:54 | 49.84053 | 70.05795 | 35728 ft | 408 kts | 218° |
| 2026-04-26 12:54 | 49.81762 | 70.03161 | 36028 ft | 408 kts | 218° |
| 2026-04-26 12:54 | 49.79481 | 70.00540 | 36318 ft | 408 kts | 218° |
| 2026-04-26 12:55 | 49.77195 | 69.97919 | 36532 ft | 410 kts | 218° |
| 2026-04-26 12:55 | 49.74895 | 69.95285 | 36725 ft | 412 kts | 218° |
| 2026-04-26 12:55 | 49.72572 | 69.92626 | 36971 ft | 413 kts | 218° |
| 2026-04-26 12:55 | 49.70265 | 69.89990 | 37259 ft | 412 kts | 218° |
| 2026-04-26 12:56 | 49.67966 | 69.87368 | 37548 ft | 410 kts | 218° |
| 2026-04-26 12:56 | 49.65668 | 69.84748 | 37771 ft | 411 kts | 218° |
| 2026-04-26 12:56 | 49.63349 | 69.82107 | 37913 ft | 413 kts | 218° |
| 2026-04-26 12:56 | 49.61033 | 69.79474 | 38031 ft | 415 kts | 218° |
| 2026-04-26 12:57 | 49.58705 | 69.76828 | 38023 ft | 416 kts | 218° |
| 2026-04-26 12:57 | 49.54062 | 69.71564 | 38035 ft | 416 kts | 218° |
| 2026-04-26 12:58 | 49.47058 | 69.63647 | 38040 ft | 416 kts | 218° |
| 2026-04-26 12:58 | 49.42387 | 69.58382 | 38045 ft | 416 kts | 218° |
| 2026-04-26 12:59 | 49.37720 | 69.53136 | 38053 ft | 415 kts | 218° |
| 2026-04-26 12:59 | 49.32883 | 69.48161 | 38058 ft | 418 kts | 212° |
| 2026-04-26 13:00 | 49.27668 | 69.44170 | 38060 ft | 420 kts | 206° |
| 2026-04-26 13:00 | 49.22126 | 69.41218 | 38067 ft | 424 kts | 199° |
| 2026-04-26 13:01 | 49.16326 | 69.39361 | 38068 ft | 428 kts | 194° |
| 2026-04-26 13:01 | 49.10442 | 69.37868 | 38072 ft | 427 kts | 194° |
| 2026-04-26 13:02 | 49.04580 | 69.36390 | 38076 ft | 427 kts | 194° |
| 2026-04-26 13:02 | 48.98766 | 69.34939 | 38077 ft | 427 kts | 194° |
| 2026-04-26 13:03 | 48.92904 | 69.33482 | 38082 ft | 427 kts | 194° |
| 2026-04-26 13:03 | 48.87032 | 69.32029 | 38087 ft | 427 kts | 194° |
| 2026-04-26 13:04 | 48.81176 | 69.30585 | 38089 ft | 426 kts | 194° |
| 2026-04-26 13:04 | 48.75306 | 69.29141 | 38096 ft | 426 kts | 194° |
| 2026-04-26 13:05 | 48.69445 | 69.27702 | 38097 ft | 426 kts | 194° |
| 2026-04-26 13:05 | 48.63591 | 69.26269 | 38099 ft | 426 kts | 194° |
| 2026-04-26 13:06 | 48.57743 | 69.24840 | 38107 ft | 426 kts | 194° |
| 2026-04-26 13:06 | 48.51878 | 69.23410 | 38106 ft | 425 kts | 194° |
| 2026-04-26 13:07 | 48.46033 | 69.21988 | 38105 ft | 425 kts | 194° |
| 2026-04-26 13:07 | 48.40167 | 69.20566 | 38119 ft | 426 kts | 194° |
| 2026-04-26 13:08 | 48.34313 | 69.19149 | 38123 ft | 426 kts | 194° |
| 2026-04-26 13:08 | 48.28443 | 69.17731 | 38124 ft | 426 kts | 194° |
| 2026-04-26 13:09 | 48.22592 | 69.16323 | 38131 ft | 425 kts | 194° |
| 2026-04-26 13:09 | 48.16742 | 69.14917 | 38133 ft | 425 kts | 194° |
| 2026-04-26 13:10 | 48.10898 | 69.13515 | 38132 ft | 425 kts | 194° |
| 2026-04-26 13:10 | 48.05087 | 69.12123 | 38133 ft | 426 kts | 194° |
| 2026-04-26 13:11 | 47.99237 | 69.10727 | 38134 ft | 426 kts | 194° |
| 2026-04-26 13:11 | 47.93391 | 69.09340 | 38138 ft | 424 kts | 194° |
| 2026-04-26 13:12 | 47.87563 | 69.07954 | 38140 ft | 424 kts | 194° |
| 2026-04-26 13:12 | 47.81737 | 69.06571 | 38136 ft | 424 kts | 194° |
| 2026-04-26 13:13 | 47.75911 | 69.05193 | 38140 ft | 424 kts | 194° |
| 2026-04-26 13:13 | 47.70083 | 69.03817 | 38143 ft | 424 kts | 194° |
| 2026-04-26 13:14 | 47.64257 | 69.02446 | 38143 ft | 424 kts | 194° |
| 2026-04-26 13:14 | 47.58433 | 69.01077 | 38135 ft | 422 kts | 194° |
| 2026-04-26 13:15 | 47.55572 | 69.00412 | 38131 ft | 410 kts | 194° |
| 2026-04-26 13:15 | 47.52771 | 68.99760 | 38149 ft | 407 kts | 195° |
| 2026-04-26 13:15 | 47.48111 | 68.98667 | 38143 ft | 406 kts | 195° |
| 2026-04-26 13:16 | 47.41598 | 68.97142 | 38148 ft | 405 kts | 195° |
| 2026-04-26 13:16 | 47.36024 | 68.95842 | 38144 ft | 405 kts | 194° |
| 2026-04-26 13:17 | 47.27654 | 68.93898 | 38143 ft | 405 kts | 194° |
| 2026-04-26 13:18 | 47.19422 | 68.91997 | 38146 ft | 395 kts | 195° |
| 2026-04-26 13:19 | 47.11300 | 68.90119 | 38145 ft | 394 kts | 195° |
| 2026-04-26 13:19 | 47.05871 | 68.88868 | 38143 ft | 393 kts | 195° |
| 2026-04-26 13:20 | 47.00457 | 68.87624 | 38145 ft | 394 kts | 195° |
| 2026-04-26 13:20 | 46.95027 | 68.86379 | 38135 ft | 394 kts | 195° |
| 2026-04-26 13:21 | 46.89615 | 68.85142 | 38145 ft | 393 kts | 195° |
| 2026-04-26 13:21 | 46.84193 | 68.83903 | 38143 ft | 393 kts | 195° |
| 2026-04-26 13:22 | 46.78789 | 68.82671 | 38145 ft | 393 kts | 195° |
| 2026-04-26 13:22 | 46.73373 | 68.81439 | 38144 ft | 393 kts | 195° |
| 2026-04-26 13:23 | 46.67972 | 68.80214 | 38144 ft | 392 kts | 195° |
| 2026-04-26 13:23 | 46.63127 | 68.79117 | 38141 ft | 392 kts | 195° |
| 2026-04-26 13:24 | 46.57737 | 68.77898 | 38139 ft | 392 kts | 195° |
| 2026-04-26 13:24 | 46.52355 | 68.76682 | 38145 ft | 391 kts | 195° |
| 2026-04-26 13:25 | 46.46979 | 68.75472 | 38144 ft | 391 kts | 195° |
| 2026-04-26 13:25 | 46.41608 | 68.74267 | 38135 ft | 390 kts | 195° |
| 2026-04-26 13:26 | 46.36244 | 68.73063 | 38138 ft | 390 kts | 195° |
| 2026-04-26 13:26 | 46.30859 | 68.71857 | 38139 ft | 390 kts | 195° |
| 2026-04-26 13:27 | 46.25495 | 68.70660 | 38144 ft | 391 kts | 195° |
| 2026-04-26 13:27 | 46.20081 | 68.69450 | 38143 ft | 396 kts | 195° |
| 2026-04-26 13:28 | 46.14554 | 68.68215 | 38136 ft | 407 kts | 195° |
| 2026-04-26 13:28 | 46.08903 | 68.66957 | 38132 ft | 417 kts | 195° |
| 2026-04-26 13:29 | 46.03143 | 68.65685 | 38132 ft | 419 kts | 195° |
| 2026-04-26 13:29 | 45.97360 | 68.64410 | 38133 ft | 419 kts | 194° |
| 2026-04-26 13:30 | 45.91595 | 68.63136 | 38133 ft | 419 kts | 194° |
| 2026-04-26 13:30 | 45.85829 | 68.61867 | 38134 ft | 419 kts | 194° |
| 2026-04-26 13:31 | 45.80061 | 68.60599 | 38133 ft | 419 kts | 194° |
| 2026-04-26 13:31 | 45.74277 | 68.59331 | 38133 ft | 419 kts | 194° |
| 2026-04-26 13:32 | 45.68505 | 68.58073 | 38134 ft | 419 kts | 194° |
| 2026-04-26 13:32 | 45.62718 | 68.56815 | 38132 ft | 419 kts | 194° |
| 2026-04-26 13:33 | 45.56948 | 68.55561 | 38133 ft | 419 kts | 194° |
| 2026-04-26 13:33 | 45.51162 | 68.54305 | 38144 ft | 420 kts | 194° |
| 2026-04-26 13:34 | 45.45384 | 68.53053 | 38154 ft | 420 kts | 194° |
| 2026-04-26 13:34 | 45.39605 | 68.51804 | 38146 ft | 420 kts | 194° |
| 2026-04-26 13:35 | 45.33824 | 68.50557 | 38154 ft | 420 kts | 194° |
| 2026-04-26 13:35 | 45.28016 | 68.49307 | 38152 ft | 421 kts | 194° |
| 2026-04-26 13:36 | 45.22227 | 68.48064 | 38158 ft | 421 kts | 194° |
| 2026-04-26 13:36 | 45.16411 | 68.46815 | 38147 ft | 421 kts | 194° |
| 2026-04-26 13:37 | 45.10619 | 68.45577 | 38150 ft | 421 kts | 194° |
| 2026-04-26 13:37 | 45.04806 | 68.44336 | 38156 ft | 421 kts | 194° |
| 2026-04-26 13:38 | 44.99009 | 68.43101 | 38146 ft | 422 kts | 194° |
| 2026-04-26 13:38 | 44.93230 | 68.41872 | 38157 ft | 422 kts | 194° |
| 2026-04-26 13:39 | 44.87382 | 68.40630 | 38152 ft | 422 kts | 193° |
| 2026-04-26 13:39 | 44.81574 | 68.39401 | 38153 ft | 422 kts | 193° |
| 2026-04-26 13:40 | 44.75799 | 68.38180 | 38149 ft | 423 kts | 193° |
| 2026-04-26 13:40 | 44.69981 | 68.36953 | 38144 ft | 423 kts | 193° |
| 2026-04-26 13:41 | 44.64157 | 68.35728 | 38145 ft | 423 kts | 193° |
| 2026-04-26 13:41 | 44.58311 | 68.34499 | 38137 ft | 424 kts | 193° |
| 2026-04-26 13:42 | 44.52474 | 68.33276 | 38143 ft | 424 kts | 193° |
| 2026-04-26 13:42 | 44.46638 | 68.32054 | 38141 ft | 425 kts | 193° |
| 2026-04-26 13:43 | 44.40788 | 68.30833 | 38147 ft | 425 kts | 193° |
| 2026-04-26 13:43 | 44.34910 | 68.29607 | 38145 ft | 424 kts | 193° |
| 2026-04-26 13:44 | 44.29066 | 68.28390 | 38134 ft | 425 kts | 193° |
| 2026-04-26 13:44 | 44.23213 | 68.27175 | 38134 ft | 425 kts | 193° |
| 2026-04-26 13:45 | 44.17330 | 68.26174 | 38132 ft | 428 kts | 189° |
| 2026-04-26 13:45 | 44.11347 | 68.25965 | 38133 ft | 432 kts | 184° |
| 2026-04-26 13:46 | 44.05328 | 68.26571 | 38133 ft | 435 kts | 180° |
| 2026-04-26 13:46 | 43.99312 | 68.27378 | 38135 ft | 435 kts | 180° |
| 2026-04-26 13:47 | 43.93291 | 68.28184 | 38127 ft | 435 kts | 180° |
| 2026-04-26 13:47 | 43.87255 | 68.28998 | 38132 ft | 435 kts | 180° |
| 2026-04-26 13:48 | 43.81232 | 68.29810 | 38134 ft | 435 kts | 180° |
| 2026-04-26 13:48 | 43.75196 | 68.30623 | 38133 ft | 435 kts | 180° |
| 2026-04-26 13:49 | 43.69170 | 68.31434 | 38126 ft | 435 kts | 180° |
| 2026-04-26 13:49 | 43.63121 | 68.32247 | 38123 ft | 436 kts | 180° |
| 2026-04-26 13:50 | 43.57084 | 68.33061 | 38125 ft | 436 kts | 180° |
| 2026-04-26 13:50 | 43.51043 | 68.33872 | 38123 ft | 436 kts | 180° |
| 2026-04-26 13:51 | 43.45008 | 68.34679 | 38123 ft | 436 kts | 180° |
| 2026-04-26 13:51 | 43.38956 | 68.35485 | 38124 ft | 436 kts | 180° |
| 2026-04-26 13:52 | 43.32917 | 68.36288 | 38123 ft | 436 kts | 180° |
| 2026-04-26 13:52 | 43.26875 | 68.37423 | 38123 ft | 440 kts | 175° |
| 2026-04-26 13:53 | 43.20843 | 68.38831 | 38124 ft | 440 kts | 176° |
| 2026-04-26 13:53 | 43.14877 | 68.40213 | 38115 ft | 430 kts | 176° |
| 2026-04-26 13:53 | 43.11938 | 68.40900 | 38115 ft | 416 kts | 176° |
| 2026-04-26 13:54 | 43.09112 | 68.41558 | 38118 ft | 411 kts | 176° |
| 2026-04-26 13:54 | 43.03508 | 68.42846 | 38123 ft | 411 kts | 176° |
| 2026-04-26 13:55 | 42.95964 | 68.44580 | 38124 ft | 411 kts | 176° |
| 2026-04-26 13:56 | 42.86580 | 68.46738 | 38124 ft | 412 kts | 176° |
| 2026-04-26 13:56 | 42.80913 | 68.48040 | 38123 ft | 412 kts | 176° |
| 2026-04-26 13:57 | 42.75256 | 68.49337 | 38123 ft | 412 kts | 176° |
| 2026-04-26 13:57 | 42.69597 | 68.50632 | 38124 ft | 412 kts | 176° |
| 2026-04-26 13:58 | 42.63942 | 68.51923 | 38124 ft | 412 kts | 176° |
| 2026-04-26 13:58 | 42.58270 | 68.53217 | 38123 ft | 412 kts | 176° |
| 2026-04-26 13:59 | 42.52605 | 68.54504 | 38125 ft | 413 kts | 176° |
| 2026-04-26 13:59 | 42.46913 | 68.55797 | 38123 ft | 413 kts | 176° |
| 2026-04-26 14:00 | 42.38335 | 68.57738 | 38127 ft | 424 kts | 176° |
| 2026-04-26 14:00 | 42.35391 | 68.58401 | 38127 ft | 428 kts | 176° |
| 2026-04-26 14:01 | 42.29492 | 68.59736 | 38124 ft | 430 kts | 176° |
| 2026-04-26 14:01 | 42.23582 | 68.61071 | 38124 ft | 431 kts | 176° |
| 2026-04-26 14:02 | 42.17714 | 68.62393 | 38124 ft | 430 kts | 176° |
| 2026-04-26 14:02 | 42.11806 | 68.63720 | 38123 ft | 430 kts | 176° |
| 2026-04-26 14:03 | 42.05898 | 68.65045 | 38124 ft | 430 kts | 176° |
| 2026-04-26 14:03 | 41.99998 | 68.66365 | 38125 ft | 430 kts | 176° |
| 2026-04-26 14:04 | 41.94078 | 68.67691 | 38124 ft | 431 kts | 176° |
| 2026-04-26 14:04 | 41.89111 | 68.68796 | 38124 ft | 432 kts | 176° |
| 2026-04-26 14:05 | 41.83225 | 68.70104 | 38124 ft | 432 kts | 176° |
| 2026-04-26 14:05 | 41.77298 | 68.71421 | 38123 ft | 432 kts | 176° |
| 2026-04-26 14:06 | 41.71371 | 68.72736 | 38122 ft | 432 kts | 176° |
| 2026-04-26 14:06 | 41.65421 | 68.74050 | 38125 ft | 432 kts | 176° |
| 2026-04-26 14:07 | 41.59427 | 68.75369 | 38126 ft | 441 kts | 176° |
| 2026-04-26 14:07 | 41.53353 | 68.76709 | 38124 ft | 443 kts | 176° |
| 2026-04-26 14:08 | 41.47267 | 68.78048 | 38123 ft | 444 kts | 176° |
| 2026-04-26 14:08 | 41.41153 | 68.79391 | 38123 ft | 443 kts | 176° |
| 2026-04-26 14:09 | 41.35062 | 68.80370 | 38123 ft | 439 kts | 181° |
| 2026-04-26 14:09 | 41.28969 | 68.81054 | 38124 ft | 439 kts | 181° |
| 2026-04-26 14:10 | 41.22129 | 68.81827 | 38125 ft | 440 kts | 181° |
| 2026-04-26 14:10 | 41.16037 | 68.82510 | 38123 ft | 439 kts | 181° |
| 2026-04-26 14:11 | 41.06898 | 68.83529 | 38124 ft | 439 kts | 181° |
| 2026-04-26 14:11 | 41.00803 | 68.84205 | 38125 ft | 439 kts | 182° |
| 2026-04-26 14:12 | 40.94715 | 68.84880 | 38124 ft | 439 kts | 182° |
| 2026-04-26 14:12 | 40.88626 | 68.85554 | 38124 ft | 439 kts | 182° |
| 2026-04-26 14:13 | 40.79494 | 68.86563 | 38124 ft | 439 kts | 182° |
| 2026-04-26 14:14 | 40.73445 | 68.87228 | 38124 ft | 439 kts | 182° |
| 2026-04-26 14:14 | 40.67342 | 68.87899 | 38124 ft | 439 kts | 182° |
| 2026-04-26 14:15 | 40.61219 | 68.88571 | 38123 ft | 439 kts | 182° |
| 2026-04-26 14:15 | 40.55131 | 68.89237 | 38124 ft | 439 kts | 182° |
| 2026-04-26 14:16 | 40.49082 | 68.89897 | 38125 ft | 439 kts | 182° |
| 2026-04-26 14:16 | 40.42976 | 68.90564 | 38124 ft | 439 kts | 182° |
| 2026-04-26 14:17 | 40.36893 | 68.91225 | 38124 ft | 439 kts | 182° |
| 2026-04-26 14:17 | 40.31794 | 68.91779 | 38124 ft | 439 kts | 182° |
| 2026-04-26 14:18 | 40.25711 | 68.92438 | 38123 ft | 439 kts | 182° |
| 2026-04-26 14:18 | 40.19608 | 68.93100 | 38120 ft | 439 kts | 182° |
| 2026-04-26 14:19 | 40.13517 | 68.93755 | 38116 ft | 439 kts | 182° |
| 2026-04-26 14:19 | 40.07490 | 68.94312 | 38107 ft | 428 kts | 186° |
| 2026-04-26 14:19 | 40.04567 | 68.94353 | 38024 ft | 415 kts | 188° |
| 2026-04-26 14:20 | 40.01705 | 68.94205 | 37625 ft | 409 kts | 191° |
| 2026-04-26 14:20 | 39.98873 | 68.93952 | 37155 ft | 408 kts | 191° |
| 2026-04-26 14:20 | 39.96041 | 68.93714 | 36655 ft | 407 kts | 191° |
| 2026-04-26 14:20 | 39.93211 | 68.93475 | 36025 ft | 409 kts | 191° |
| 2026-04-26 14:21 | 39.90360 | 68.93230 | 35342 ft | 412 kts | 191° |
| 2026-04-26 14:21 | 39.87493 | 68.92985 | 34737 ft | 414 kts | 190° |
| 2026-04-26 14:21 | 39.84591 | 68.92738 | 34127 ft | 419 kts | 190° |
| 2026-04-26 14:21 | 39.81674 | 68.92491 | 33548 ft | 419 kts | 189° |
| 2026-04-26 14:22 | 39.78779 | 68.92252 | 32850 ft | 417 kts | 189° |
| 2026-04-26 14:22 | 39.75864 | 68.92006 | 32160 ft | 421 kts | 189° |
| 2026-04-26 14:22 | 39.72935 | 68.91760 | 31483 ft | 420 kts | 189° |
| 2026-04-26 14:22 | 39.70022 | 68.91516 | 30857 ft | 419 kts | 188° |
| 2026-04-26 14:23 | 39.67136 | 68.91278 | 30478 ft | 411 kts | 188° |
| 2026-04-26 14:23 | 39.64295 | 68.91043 | 29885 ft | 407 kts | 188° |
| 2026-04-26 14:23 | 39.61479 | 68.90807 | 29260 ft | 404 kts | 188° |
| 2026-04-26 14:23 | 39.58680 | 68.90572 | 28619 ft | 402 kts | 188° |
| 2026-04-26 14:24 | 39.55900 | 68.90338 | 28232 ft | 398 kts | 188° |
| 2026-04-26 14:24 | 39.53143 | 68.90099 | 27789 ft | 395 kts | 188° |
| 2026-04-26 14:24 | 39.50417 | 68.89856 | 27386 ft | 392 kts | 188° |
| 2026-04-26 14:24 | 39.47711 | 68.89615 | 26882 ft | 387 kts | 188° |
| 2026-04-26 14:25 | 39.45051 | 68.89376 | 26393 ft | 380 kts | 187° |
| 2026-04-26 14:25 | 39.42424 | 68.89140 | 25779 ft | 377 kts | 187° |
| 2026-04-26 14:25 | 39.39824 | 68.88909 | 25326 ft | 372 kts | 187° |
| 2026-04-26 14:25 | 39.37242 | 68.88679 | 24886 ft | 372 kts | 187° |
| 2026-04-26 14:26 | 39.34659 | 68.88448 | 24386 ft | 373 kts | 187° |
| 2026-04-26 14:26 | 39.32060 | 68.88224 | 23923 ft | 374 kts | 186° |
| 2026-04-26 14:26 | 39.29461 | 68.88023 | 23503 ft | 369 kts | 186° |
| 2026-04-26 14:26 | 39.26914 | 68.87831 | 23116 ft | 364 kts | 186° |
| 2026-04-26 14:27 | 39.24400 | 68.87641 | 22729 ft | 360 kts | 185° |
| 2026-04-26 14:27 | 39.21905 | 68.87451 | 22442 ft | 358 kts | 185° |
| 2026-04-26 14:27 | 39.19420 | 68.87262 | 22160 ft | 353 kts | 185° |
| 2026-04-26 14:27 | 39.16982 | 68.87076 | 21844 ft | 348 kts | 185° |
| 2026-04-26 14:28 | 39.14581 | 68.86892 | 21541 ft | 343 kts | 185° |
| 2026-04-26 14:28 | 39.12219 | 68.86710 | 21237 ft | 337 kts | 185° |
| 2026-04-26 14:28 | 39.09875 | 68.86529 | 20906 ft | 333 kts | 185° |
| 2026-04-26 14:28 | 39.07569 | 68.86352 | 20547 ft | 330 kts | 185° |
| 2026-04-26 14:29 | 39.05289 | 68.86175 | 20146 ft | 327 kts | 185° |
| 2026-04-26 14:29 | 39.03019 | 68.86001 | 19742 ft | 326 kts | 185° |
| 2026-04-26 14:29 | 39.00743 | 68.85825 | 19369 ft | 326 kts | 184° |
| 2026-04-26 14:29 | 38.98479 | 68.85652 | 18985 ft | 326 kts | 184° |
| 2026-04-26 14:30 | 38.96233 | 68.85479 | 18637 ft | 336 kts | 184° |
| 2026-04-26 14:30 | 38.93748 | 68.85287 | 18253 ft | 367 kts | 184° |
| 2026-04-26 14:30 | 38.91179 | 68.85091 | 18050 ft | 375 kts | 184° |
| 2026-04-26 14:30 | 38.88568 | 68.84893 | 18048 ft | 377 kts | 184° |
| 2026-04-26 14:31 | 38.85944 | 68.84695 | 18047 ft | 378 kts | 184° |
| 2026-04-26 14:31 | 38.83311 | 68.84433 | 18059 ft | 383 kts | 186° |
| 2026-04-26 14:31 | 38.80641 | 68.84097 | 17752 ft | 384 kts | 186° |
| 2026-04-26 14:31 | 38.77957 | 68.83759 | 16864 ft | 392 kts | 186° |
| 2026-04-26 14:32 | 38.75216 | 68.83414 | 15933 ft | 397 kts | 186° |
| 2026-04-26 14:32 | 38.72475 | 68.83069 | 14822 ft | 394 kts | 186° |
| 2026-04-26 14:32 | 38.69762 | 68.82727 | 13869 ft | 386 kts | 186° |
| 2026-04-26 14:32 | 38.67109 | 68.82390 | 12838 ft | 381 kts | 187° |
| 2026-04-26 14:33 | 38.64504 | 68.81891 | 11841 ft | 376 kts | 191° |
| 2026-04-26 14:33 | 38.61979 | 68.81129 | 11297 ft | 370 kts | 195° |
| 2026-04-26 14:33 | 38.59536 | 68.80170 | 10879 ft | 365 kts | 198° |
| 2026-04-26 14:33 | 38.57147 | 68.79190 | 10660 ft | 354 kts | 198° |
| 2026-04-26 14:34 | 38.54867 | 68.78250 | 10500 ft | 332 kts | 198° |
| 2026-04-26 14:34 | 38.52753 | 68.77380 | 10446 ft | 306 kts | 198° |
| 2026-04-26 14:34 | 38.50797 | 68.76575 | 10430 ft | 289 kts | 198° |
| 2026-04-26 14:34 | 38.48904 | 68.75793 | 10307 ft | 282 kts | 200° |
| 2026-04-26 14:35 | 38.47240 | 68.74590 | 10174 ft | 271 kts | 223° |
| 2026-04-26 14:35 | 38.46122 | 68.72688 | 10099 ft | 270 kts | 246° |
| 2026-04-26 14:35 | 38.45660 | 68.70367 | 10000 ft | 268 kts | 266° |
| 2026-04-26 14:35 | 38.45637 | 68.68010 | 9774 ft | 263 kts | 270° |
| 2026-04-26 14:36 | 38.45659 | 68.65701 | 9557 ft | 257 kts | 270° |
| 2026-04-26 14:36 | 38.45680 | 68.63421 | 9269 ft | 256 kts | 270° |
| 2026-04-26 14:36 | 38.45691 | 68.61154 | 8993 ft | 255 kts | 270° |
| 2026-04-26 14:36 | 38.45698 | 68.58893 | 8665 ft | 253 kts | 270° |
| 2026-04-26 14:37 | 38.45702 | 68.56671 | 8377 ft | 247 kts | 270° |
| 2026-04-26 14:37 | 38.45704 | 68.54510 | 8188 ft | 237 kts | 270° |
| 2026-04-26 14:37 | 38.45728 | 68.52464 | 8156 ft | 221 kts | 277° |
| 2026-04-26 14:37 | 38.46222 | 68.50704 | 8083 ft | 204 kts | 304° |
| 2026-04-26 14:38 | 38.47231 | 68.49462 | 7992 ft | 206 kts | 329° |
| 2026-04-26 14:38 | 38.48584 | 68.48888 | 7693 ft | 206 kts | 355° |
| 2026-04-26 14:38 | 38.49995 | 68.48846 | 7455 ft | 200 kts | 360° |
| 2026-04-26 14:38 | 38.50909 | 68.48857 | 7300 ft | 197 kts | 0° |
| 2026-04-26 14:39 | 38.52674 | 68.49223 | 6988 ft | 193 kts | 26° |
| 2026-04-26 14:39 | 38.53723 | 68.50276 | 6869 ft | 194 kts | 52° |
| 2026-04-26 14:39 | 38.54333 | 68.51808 | 6839 ft | 195 kts | 76° |
| 2026-04-26 14:39 | 38.54490 | 68.53491 | 6688 ft | 186 kts | 87° |
| 2026-04-26 14:40 | 38.54504 | 68.55123 | 6432 ft | 182 kts | 90° |
| 2026-04-26 14:40 | 38.54487 | 68.56734 | 6193 ft | 181 kts | 90° |
| 2026-04-26 14:40 | 38.54468 | 68.58338 | 5948 ft | 180 kts | 90° |
| 2026-04-26 14:40 | 38.54452 | 68.59934 | 5723 ft | 179 kts | 90° |
| 2026-04-26 14:41 | 38.54441 | 68.61524 | 5489 ft | 178 kts | 90° |
| 2026-04-26 14:41 | 38.54432 | 68.63110 | 5255 ft | 178 kts | 90° |
| 2026-04-26 14:41 | 38.54425 | 68.64703 | 5017 ft | 177 kts | 90° |
| 2026-04-26 14:41 | 38.54419 | 68.66277 | 4783 ft | 176 kts | 90° |
| 2026-04-26 14:42 | 38.54413 | 68.67842 | 4546 ft | 175 kts | 90° |
| 2026-04-26 14:42 | 38.54408 | 68.69400 | 4311 ft | 175 kts | 90° |
| 2026-04-26 14:42 | 38.54402 | 68.70952 | 4078 ft | 174 kts | 90° |
| 2026-04-26 14:42 | 38.54397 | 68.72500 | 3837 ft | 174 kts | 90° |
| 2026-04-26 14:43 | 38.54393 | 68.74041 | 3613 ft | 173 kts | 90° |
| 2026-04-26 14:43 | 38.54380 | 68.75583 | 3393 ft | 173 kts | 91° |
| 2026-04-26 14:43 | 38.54369 | 68.77120 | 3169 ft | 172 kts | 90° |
| 2026-04-26 14:43 | 38.54367 | 68.78649 | 2903 ft | 171 kts | 90° |
| 2026-04-26 14:44 | 38.54373 | 68.80170 | 2681 ft | 170 kts | 90° |
| 2026-04-26 14:44 | 38.54371 | 68.81623 | 2590 ft | 142 kts | 90° |
| 2026-04-26 14:44 | 38.54367 | 68.82590 | 2581 ft | 79 kts | 90° |
| 2026-04-26 14:44 | 38.54367 | 68.83087 | 2588 ft | 40 kts | 90° |
| 2026-04-26 14:45 | 38.54414 | 68.83280 | 2593 ft | 20 kts | 22° |
| 2026-04-26 14:45 | 38.54492 | 68.83290 | 2590 ft | 6 kts | 0° |
| 2026-04-26 14:45 | 38.54563 | 68.83290 | 2585 ft | 9 kts | 0° |
| 2026-04-26 14:45 | 38.54635 | 68.83291 | 2590 ft | 11 kts | 0° |
| 2026-04-26 14:46 | 38.54688 | 68.83236 | 2590 ft | 12 kts | 277° |
| 2026-04-26 14:46 | 38.54687 | 68.83122 | 2593 ft | 14 kts | 269° |
| 2026-04-26 14:46 | 38.54687 | 68.82994 | 2590 ft | 15 kts | 271° |
| 2026-04-26 14:46 | 38.54688 | 68.82850 | 2590 ft | 17 kts | 270° |
| 2026-04-26 14:47 | 38.54688 | 68.82685 | 2590 ft | 19 kts | 270° |
| 2026-04-26 14:47 | 38.54688 | 68.82503 | 2590 ft | 21 kts | 270° |
| 2026-04-26 14:47 | 38.54695 | 68.82307 | 2590 ft | 23 kts | 272° |
| 2026-04-26 14:47 | 38.54699 | 68.82154 | 2590 ft | 17 kts | 271° |
| 2026-04-26 14:48 | 38.54700 | 68.81997 | 2587 ft | 16 kts | 269° |
| 2026-04-26 14:48 | 38.54700 | 68.81904 | 2587 ft | 4 kts | 270° |
| 2026-04-26 14:48 | 38.54700 | 68.81866 | 2590 ft | 4 kts | 270° |
| 2026-04-26 14:48 | 38.54700 | 68.81851 | 2590 ft | 1 kts | 270° |
| 2026-04-26 14:49 | 38.54700 | 68.81833 | 2590 ft | 3 kts | 270° |
| 2026-04-26 14:49 | 38.54700 | 68.81793 | 2590 ft | 6 kts | 270° |
| 2026-04-26 14:49 | 38.54700 | 68.81781 | 2590 ft | 0 kts | 270° |
| 2026-04-26 14:49 | 38.54700 | 68.81759 | 2590 ft | 8 kts | 270° |
| 2026-04-26 14:50 | 38.54700 | 68.81647 | 2589 ft | 14 kts | 270° |
| 2026-04-26 14:50 | 38.54694 | 68.81516 | 2590 ft | 16 kts | 265° |
| 2026-04-26 14:50 | 38.54690 | 68.81378 | 2590 ft | 13 kts | 270° |
| 2026-04-26 14:50 | 38.54691 | 68.81254 | 2588 ft | 10 kts | 270° |
| 2026-04-26 14:51 | 38.54692 | 68.81230 | 2588 ft | 3 kts | 282° |
| 2026-04-26 14:51 | 38.54706 | 68.81207 | 2590 ft | 4 kts | 330° |
| 2026-04-26 14:51 | 38.54729 | 68.81204 | 2588 ft | 4 kts | 356° |
| 2026-04-26 14:51 | 38.54762 | 68.81203 | 2588 ft | 2 kts | 359° |
| 2026-04-26 14:52 | 38.54768 | 68.81203 | 2590 ft | 0 kts | 359° |